sensor_id;sensor_type;location;lat;lon;timestamp;P1;durP1;ratioP1;P2;durP2;ratioP2
10313;SDS011;5202;49.138;10.090;2023-08-31T00:03:32;2.43;;;2.17;;
10313;SDS011;5202;49.138;10.090;2023-08-31T00:06:01;3.30;;;2.20;;
10313;SDS011;5202;49.138;10.090;2023-08-31T00:08:30;3.40;;;2.17;;
10313;SDS011;5202;49.138;10.090;2023-08-31T00:10:59;2.07;;;1.87;;
10313;SDS011;5202;49.138;10.090;2023-08-31T00:13:29;2.50;;;2.30;;
10313;SDS011;5202;49.138;10.090;2023-08-31T00:15:57;4.63;;;2.10;;
10313;SDS011;5202;49.138;10.090;2023-08-31T00:18:26;3.07;;;2.20;;
10313;SDS011;5202;49.138;10.090;2023-08-31T00:20:56;3.53;;;2.50;;
10313;SDS011;5202;49.138;10.090;2023-08-31T00:23:24;2.40;;;2.20;;
10313;SDS011;5202;49.138;10.090;2023-08-31T00:25:53;2.20;;;2.00;;
10313;SDS011;5202;49.138;10.090;2023-08-31T00:28:23;2.40;;;2.20;;
10313;SDS011;5202;49.138;10.090;2023-08-31T00:30:54;3.97;;;2.17;;
10313;SDS011;5202;49.138;10.090;2023-08-31T00:33:25;2.77;;;2.17;;
10313;SDS011;5202;49.138;10.090;2023-08-31T00:35:54;2.93;;;2.10;;
10313;SDS011;5202;49.138;10.090;2023-08-31T00:38:24;5.33;;;2.33;;
10313;SDS011;5202;49.138;10.090;2023-08-31T00:40:52;4.43;;;2.60;;
10313;SDS011;5202;49.138;10.090;2023-08-31T00:43:21;4.43;;;3.10;;
10313;SDS011;5202;49.138;10.090;2023-08-31T00:45:51;2.77;;;2.30;;
10313;SDS011;5202;49.138;10.090;2023-08-31T00:48:23;4.13;;;2.40;;
10313;SDS011;5202;49.138;10.090;2023-08-31T00:50:53;3.10;;;2.77;;
10313;SDS011;5202;49.138;10.090;2023-08-31T00:53:23;2.97;;;2.30;;
10313;SDS011;5202;49.138;10.090;2023-08-31T00:55:52;3.67;;;2.20;;
10313;SDS011;5202;49.138;10.090;2023-08-31T00:58:21;2.70;;;2.37;;
10313;SDS011;5202;49.138;10.090;2023-08-31T01:00:51;3.10;;;2.47;;
10313;SDS011;5202;49.138;10.090;2023-08-31T01:03:31;4.40;;;2.23;;
10313;SDS011;5202;49.138;10.090;2023-08-31T01:06:12;2.83;;;2.50;;
10313;SDS011;5202;49.138;10.090;2023-08-31T01:08:50;4.40;;;2.07;;
10313;SDS011;5202;49.138;10.090;2023-08-31T01:11:29;2.43;;;2.23;;
10313;SDS011;5202;49.138;10.090;2023-08-31T01:14:09;15.33;;;2.40;;
10313;SDS011;5202;49.138;10.090;2023-08-31T01:16:43;74.50;;;12.53;;
10313;SDS011;5202;49.138;10.090;2023-08-31T01:19:17;7.97;;;2.40;;
10313;SDS011;5202;49.138;10.090;2023-08-31T01:22:09;4.27;;;2.40;;
10313;SDS011;5202;49.138;10.090;2023-08-31T01:24:47;3.83;;;2.30;;
10313;SDS011;5202;49.138;10.090;2023-08-31T01:27:15;3.07;;;2.67;;
10313;SDS011;5202;49.138;10.090;2023-08-31T01:29:44;3.07;;;2.40;;
10313;SDS011;5202;49.138;10.090;2023-08-31T01:32:13;3.20;;;2.67;;
10313;SDS011;5202;49.138;10.090;2023-08-31T01:34:41;5.43;;;3.23;;
10313;SDS011;5202;49.138;10.090;2023-08-31T01:37:13;6.23;;;3.70;;
10313;SDS011;5202;49.138;10.090;2023-08-31T01:39:54;7.97;;;3.03;;
10313;SDS011;5202;49.138;10.090;2023-08-31T01:42:27;3.33;;;2.93;;
10313;SDS011;5202;49.138;10.090;2023-08-31T01:44:56;3.73;;;3.00;;
10313;SDS011;5202;49.138;10.090;2023-08-31T01:47:26;3.43;;;3.13;;
10313;SDS011;5202;49.138;10.090;2023-08-31T01:49:55;3.20;;;2.90;;
10313;SDS011;5202;49.138;10.090;2023-08-31T01:52:24;9.43;;;3.57;;
10313;SDS011;5202;49.138;10.090;2023-08-31T01:54:53;6.30;;;3.60;;
10313;SDS011;5202;49.138;10.090;2023-08-31T01:57:22;5.40;;;3.30;;
10313;SDS011;5202;49.138;10.090;2023-08-31T02:00:13;5.80;;;3.40;;
10313;SDS011;5202;49.138;10.090;2023-08-31T02:02:46;3.67;;;3.30;;
10313;SDS011;5202;49.138;10.090;2023-08-31T02:05:18;3.90;;;3.10;;
10313;SDS011;5202;49.138;10.090;2023-08-31T02:07:46;4.00;;;3.40;;
10313;SDS011;5202;49.138;10.090;2023-08-31T02:10:16;5.00;;;3.13;;
10313;SDS011;5202;49.138;10.090;2023-08-31T02:12:45;4.10;;;2.70;;
10313;SDS011;5202;49.138;10.090;2023-08-31T02:15:13;5.07;;;3.23;;
10313;SDS011;5202;49.138;10.090;2023-08-31T02:17:42;6.37;;;3.40;;
10313;SDS011;5202;49.138;10.090;2023-08-31T02:20:11;3.27;;;2.97;;
10313;SDS011;5202;49.138;10.090;2023-08-31T02:22:40;5.67;;;3.87;;
10313;SDS011;5202;49.138;10.090;2023-08-31T02:25:09;7.03;;;3.23;;
10313;SDS011;5202;49.138;10.090;2023-08-31T02:27:39;4.20;;;3.43;;
10313;SDS011;5202;49.138;10.090;2023-08-31T02:30:08;5.33;;;3.47;;
10313;SDS011;5202;49.138;10.090;2023-08-31T02:32:37;6.10;;;3.87;;
10313;SDS011;5202;49.138;10.090;2023-08-31T02:35:07;8.40;;;4.07;;
10313;SDS011;5202;49.138;10.090;2023-08-31T02:37:36;6.17;;;3.50;;
10313;SDS011;5202;49.138;10.090;2023-08-31T02:40:04;6.43;;;3.97;;
10313;SDS011;5202;49.138;10.090;2023-08-31T02:42:35;5.73;;;3.83;;
10313;SDS011;5202;49.138;10.090;2023-08-31T02:45:05;4.63;;;3.70;;
10313;SDS011;5202;49.138;10.090;2023-08-31T02:47:34;3.90;;;3.50;;
10313;SDS011;5202;49.138;10.090;2023-08-31T02:50:03;6.33;;;4.10;;
10313;SDS011;5202;49.138;10.090;2023-08-31T02:52:33;5.37;;;3.90;;
10313;SDS011;5202;49.138;10.090;2023-08-31T02:55:01;6.80;;;3.90;;
10313;SDS011;5202;49.138;10.090;2023-08-31T02:57:30;6.00;;;4.47;;
10313;SDS011;5202;49.138;10.090;2023-08-31T02:59:58;5.50;;;3.67;;
10313;SDS011;5202;49.138;10.090;2023-08-31T03:02:29;5.43;;;3.90;;
10313;SDS011;5202;49.138;10.090;2023-08-31T03:04:58;5.93;;;4.03;;
10313;SDS011;5202;49.138;10.090;2023-08-31T03:07:28;6.17;;;3.87;;
10313;SDS011;5202;49.138;10.090;2023-08-31T03:09:56;5.63;;;3.80;;
10313;SDS011;5202;49.138;10.090;2023-08-31T03:12:25;6.10;;;4.20;;
10313;SDS011;5202;49.138;10.090;2023-08-31T03:14:53;5.87;;;3.83;;
10313;SDS011;5202;49.138;10.090;2023-08-31T03:17:22;5.23;;;3.80;;
10313;SDS011;5202;49.138;10.090;2023-08-31T03:19:52;8.37;;;4.27;;
10313;SDS011;5202;49.138;10.090;2023-08-31T03:22:21;6.07;;;3.93;;
10313;SDS011;5202;49.138;10.090;2023-08-31T03:24:49;7.63;;;4.23;;
10313;SDS011;5202;49.138;10.090;2023-08-31T03:27:17;6.67;;;3.93;;
10313;SDS011;5202;49.138;10.090;2023-08-31T03:29:46;5.80;;;4.30;;
10313;SDS011;5202;49.138;10.090;2023-08-31T03:32:15;11.23;;;4.43;;
10313;SDS011;5202;49.138;10.090;2023-08-31T03:34:43;4.40;;;3.90;;
10313;SDS011;5202;49.138;10.090;2023-08-31T03:37:13;4.37;;;3.73;;
10313;SDS011;5202;49.138;10.090;2023-08-31T03:39:42;7.23;;;4.23;;
10313;SDS011;5202;49.138;10.090;2023-08-31T03:42:10;6.17;;;4.33;;
10313;SDS011;5202;49.138;10.090;2023-08-31T03:44:38;5.73;;;4.73;;
10313;SDS011;5202;49.138;10.090;2023-08-31T03:47:07;7.37;;;5.03;;
10313;SDS011;5202;49.138;10.090;2023-08-31T03:49:35;5.50;;;4.27;;
10313;SDS011;5202;49.138;10.090;2023-08-31T03:52:06;10.23;;;5.17;;
10313;SDS011;5202;49.138;10.090;2023-08-31T03:54:36;5.37;;;4.50;;
10313;SDS011;5202;49.138;10.090;2023-08-31T03:57:05;6.00;;;4.57;;
10313;SDS011;5202;49.138;10.090;2023-08-31T03:59:33;8.73;;;4.73;;
10313;SDS011;5202;49.138;10.090;2023-08-31T04:02:02;6.63;;;5.10;;
10313;SDS011;5202;49.138;10.090;2023-08-31T04:04:31;8.27;;;5.17;;
10313;SDS011;5202;49.138;10.090;2023-08-31T04:07:00;5.40;;;4.13;;
10313;SDS011;5202;49.138;10.090;2023-08-31T04:09:31;4.97;;;4.47;;
10313;SDS011;5202;49.138;10.090;2023-08-31T04:12:00;10.77;;;4.80;;
10313;SDS011;5202;49.138;10.090;2023-08-31T04:14:30;13.33;;;5.43;;
10313;SDS011;5202;49.138;10.090;2023-08-31T04:16:58;7.97;;;5.40;;
10313;SDS011;5202;49.138;10.090;2023-08-31T04:19:26;5.40;;;4.90;;
10313;SDS011;5202;49.138;10.090;2023-08-31T04:21:55;5.93;;;4.90;;
10313;SDS011;5202;49.138;10.090;2023-08-31T04:24:23;8.23;;;5.33;;
10313;SDS011;5202;49.138;10.090;2023-08-31T04:26:52;8.77;;;5.27;;
10313;SDS011;5202;49.138;10.090;2023-08-31T04:29:21;7.07;;;5.00;;
10313;SDS011;5202;49.138;10.090;2023-08-31T04:31:50;9.20;;;5.67;;
10313;SDS011;5202;49.138;10.090;2023-08-31T04:34:18;8.10;;;5.60;;
10313;SDS011;5202;49.138;10.090;2023-08-31T04:36:46;6.30;;;5.07;;
10313;SDS011;5202;49.138;10.090;2023-08-31T04:39:15;6.73;;;4.90;;
10313;SDS011;5202;49.138;10.090;2023-08-31T04:41:43;8.33;;;5.37;;
10313;SDS011;5202;49.138;10.090;2023-08-31T04:44:11;11.47;;;4.97;;
10313;SDS011;5202;49.138;10.090;2023-08-31T04:46:41;6.53;;;4.77;;
10313;SDS011;5202;49.138;10.090;2023-08-31T04:49:09;8.07;;;4.60;;
10313;SDS011;5202;49.138;10.090;2023-08-31T04:51:37;7.93;;;4.30;;
10313;SDS011;5202;49.138;10.090;2023-08-31T04:54:08;8.10;;;4.57;;
10313;SDS011;5202;49.138;10.090;2023-08-31T04:56:38;7.00;;;4.20;;
10313;SDS011;5202;49.138;10.090;2023-08-31T04:59:07;6.37;;;4.20;;
10313;SDS011;5202;49.138;10.090;2023-08-31T05:01:35;6.37;;;4.93;;
10313;SDS011;5202;49.138;10.090;2023-08-31T05:04:05;8.30;;;4.50;;
10313;SDS011;5202;49.138;10.090;2023-08-31T05:06:34;7.73;;;4.80;;
10313;SDS011;5202;49.138;10.090;2023-08-31T05:09:02;6.93;;;4.40;;
10313;SDS011;5202;49.138;10.090;2023-08-31T05:11:32;7.10;;;4.57;;
10313;SDS011;5202;49.138;10.090;2023-08-31T05:14:01;5.70;;;4.30;;
10313;SDS011;5202;49.138;10.090;2023-08-31T05:16:30;7.70;;;4.50;;
10313;SDS011;5202;49.138;10.090;2023-08-31T05:18:58;7.13;;;4.40;;
10313;SDS011;5202;49.138;10.090;2023-08-31T05:21:28;6.07;;;4.60;;
10313;SDS011;5202;49.138;10.090;2023-08-31T05:23:56;10.93;;;4.53;;
10313;SDS011;5202;49.138;10.090;2023-08-31T05:26:25;9.40;;;4.97;;
10313;SDS011;5202;49.138;10.090;2023-08-31T05:28:53;6.80;;;4.33;;
10313;SDS011;5202;49.138;10.090;2023-08-31T05:31:21;6.47;;;4.60;;
10313;SDS011;5202;49.138;10.090;2023-08-31T05:33:50;11.10;;;5.13;;
10313;SDS011;5202;49.138;10.090;2023-08-31T05:36:19;6.23;;;4.77;;
10313;SDS011;5202;49.138;10.090;2023-08-31T05:38:48;7.70;;;4.80;;
10313;SDS011;5202;49.138;10.090;2023-08-31T05:41:18;8.33;;;4.30;;
10313;SDS011;5202;49.138;10.090;2023-08-31T05:43:47;5.20;;;4.07;;
10313;SDS011;5202;49.138;10.090;2023-08-31T05:46:15;8.00;;;4.60;;
10313;SDS011;5202;49.138;10.090;2023-08-31T05:48:44;5.80;;;4.53;;
10313;SDS011;5202;49.138;10.090;2023-08-31T05:51:13;6.87;;;4.17;;
10313;SDS011;5202;49.138;10.090;2023-08-31T05:53:41;9.63;;;4.30;;
10313;SDS011;5202;49.138;10.090;2023-08-31T05:56:11;6.50;;;4.07;;
10313;SDS011;5202;49.138;10.090;2023-08-31T05:58:39;7.53;;;4.43;;
10313;SDS011;5202;49.138;10.090;2023-08-31T06:01:08;6.77;;;3.90;;
10313;SDS011;5202;49.138;10.090;2023-08-31T06:03:38;8.63;;;3.60;;
10313;SDS011;5202;49.138;10.090;2023-08-31T06:06:08;8.23;;;3.40;;
10313;SDS011;5202;49.138;10.090;2023-08-31T06:08:40;5.60;;;4.20;;
10313;SDS011;5202;49.138;10.090;2023-08-31T06:11:11;6.07;;;4.03;;
10313;SDS011;5202;49.138;10.090;2023-08-31T06:13:40;6.67;;;4.00;;
10313;SDS011;5202;49.138;10.090;2023-08-31T06:16:08;6.10;;;3.73;;
10313;SDS011;5202;49.138;10.090;2023-08-31T06:18:37;7.13;;;3.60;;
10313;SDS011;5202;49.138;10.090;2023-08-31T06:21:05;6.90;;;4.10;;
10313;SDS011;5202;49.138;10.090;2023-08-31T06:23:34;6.83;;;3.33;;
10313;SDS011;5202;49.138;10.090;2023-08-31T06:26:02;7.17;;;3.53;;
10313;SDS011;5202;49.138;10.090;2023-08-31T06:28:32;5.63;;;3.63;;
10313;SDS011;5202;49.138;10.090;2023-08-31T06:31:00;6.90;;;3.30;;
10313;SDS011;5202;49.138;10.090;2023-08-31T06:33:29;4.60;;;2.93;;
10313;SDS011;5202;49.138;10.090;2023-08-31T06:35:58;5.53;;;3.07;;
10313;SDS011;5202;49.138;10.090;2023-08-31T06:38:27;7.00;;;3.10;;
10313;SDS011;5202;49.138;10.090;2023-08-31T06:40:55;6.20;;;2.70;;
10313;SDS011;5202;49.138;10.090;2023-08-31T06:43:25;6.07;;;2.90;;
10313;SDS011;5202;49.138;10.090;2023-08-31T06:45:55;4.90;;;3.07;;
10313;SDS011;5202;49.138;10.090;2023-08-31T06:48:43;4.83;;;2.90;;
10313;SDS011;5202;49.138;10.090;2023-08-31T06:51:12;7.57;;;2.90;;
10313;SDS011;5202;49.138;10.090;2023-08-31T06:53:41;4.37;;;2.53;;
10313;SDS011;5202;49.138;10.090;2023-08-31T06:56:11;6.93;;;2.80;;
10313;SDS011;5202;49.138;10.090;2023-08-31T06:58:39;4.63;;;2.83;;
10313;SDS011;5202;49.138;10.090;2023-08-31T07:01:11;7.07;;;3.13;;
10313;SDS011;5202;49.138;10.090;2023-08-31T07:03:41;6.17;;;3.17;;
10313;SDS011;5202;49.138;10.090;2023-08-31T07:06:09;6.63;;;2.73;;
10313;SDS011;5202;49.138;10.090;2023-08-31T07:08:41;5.70;;;2.33;;
10313;SDS011;5202;49.138;10.090;2023-08-31T07:11:11;3.00;;;2.53;;
10313;SDS011;5202;49.138;10.090;2023-08-31T07:13:40;5.97;;;2.63;;
10313;SDS011;5202;49.138;10.090;2023-08-31T07:16:09;3.80;;;2.47;;
10313;SDS011;5202;49.138;10.090;2023-08-31T07:18:38;5.93;;;2.47;;
10313;SDS011;5202;49.138;10.090;2023-08-31T07:21:07;7.77;;;2.60;;
10313;SDS011;5202;49.138;10.090;2023-08-31T07:23:39;4.13;;;2.10;;
10313;SDS011;5202;49.138;10.090;2023-08-31T07:26:07;3.47;;;2.17;;
10313;SDS011;5202;49.138;10.090;2023-08-31T07:28:36;5.80;;;2.53;;
10313;SDS011;5202;49.138;10.090;2023-08-31T07:31:05;7.57;;;2.80;;
10313;SDS011;5202;49.138;10.090;2023-08-31T07:33:35;5.33;;;2.63;;
10313;SDS011;5202;49.138;10.090;2023-08-31T07:36:04;4.40;;;2.30;;
10313;SDS011;5202;49.138;10.090;2023-08-31T07:38:33;3.87;;;2.33;;
10313;SDS011;5202;49.138;10.090;2023-08-31T07:41:01;3.10;;;2.23;;
10313;SDS011;5202;49.138;10.090;2023-08-31T07:43:30;5.03;;;2.87;;
10313;SDS011;5202;49.138;10.090;2023-08-31T07:45:59;7.67;;;3.10;;
10313;SDS011;5202;49.138;10.090;2023-08-31T07:48:27;3.17;;;2.00;;
10313;SDS011;5202;49.138;10.090;2023-08-31T07:50:57;2.83;;;2.33;;
10313;SDS011;5202;49.138;10.090;2023-08-31T07:53:25;6.93;;;3.07;;
10313;SDS011;5202;49.138;10.090;2023-08-31T07:55:56;6.13;;;2.83;;
10313;SDS011;5202;49.138;10.090;2023-08-31T07:58:26;9.50;;;3.60;;
10313;SDS011;5202;49.138;10.090;2023-08-31T08:00:54;5.13;;;2.47;;
10313;SDS011;5202;49.138;10.090;2023-08-31T08:03:24;7.57;;;2.50;;
10313;SDS011;5202;49.138;10.090;2023-08-31T08:05:52;5.20;;;2.50;;
10313;SDS011;5202;49.138;10.090;2023-08-31T08:08:32;5.43;;;2.50;;
10313;SDS011;5202;49.138;10.090;2023-08-31T08:11:01;4.87;;;2.60;;
10313;SDS011;5202;49.138;10.090;2023-08-31T08:13:31;5.90;;;2.70;;
10313;SDS011;5202;49.138;10.090;2023-08-31T08:15:59;6.40;;;2.23;;
10313;SDS011;5202;49.138;10.090;2023-08-31T08:18:28;4.50;;;2.43;;
10313;SDS011;5202;49.138;10.090;2023-08-31T08:20:58;5.22;;;2.20;;
10313;SDS011;5202;49.138;10.090;2023-08-31T08:23:27;4.90;;;2.67;;
10313;SDS011;5202;49.138;10.090;2023-08-31T08:25:56;5.05;;;2.70;;
10313;SDS011;5202;49.138;10.090;2023-08-31T08:28:26;5.47;;;2.22;;
10313;SDS011;5202;49.138;10.090;2023-08-31T08:30:54;6.45;;;2.00;;
10313;SDS011;5202;49.138;10.090;2023-08-31T08:33:23;4.30;;;2.55;;
10313;SDS011;5202;49.138;10.090;2023-08-31T08:35:51;4.03;;;2.55;;
10313;SDS011;5202;49.138;10.090;2023-08-31T08:38:25;3.33;;;2.08;;
10313;SDS011;5202;49.138;10.090;2023-08-31T08:40:53;3.05;;;2.22;;
10313;SDS011;5202;49.138;10.090;2023-08-31T08:43:24;3.97;;;2.13;;
10313;SDS011;5202;49.138;10.090;2023-08-31T08:45:53;3.15;;;2.00;;
10313;SDS011;5202;49.138;10.090;2023-08-31T08:48:26;5.97;;;2.03;;
10313;SDS011;5202;49.138;10.090;2023-08-31T08:50:55;4.40;;;2.30;;
10313;SDS011;5202;49.138;10.090;2023-08-31T08:53:24;3.10;;;2.00;;
10313;SDS011;5202;49.138;10.090;2023-08-31T08:55:53;3.88;;;1.80;;
10313;SDS011;5202;49.138;10.090;2023-08-31T08:58:23;3.70;;;2.05;;
10313;SDS011;5202;49.138;10.090;2023-08-31T09:00:52;8.52;;;2.13;;
10313;SDS011;5202;49.138;10.090;2023-08-31T09:03:23;3.03;;;1.83;;
10313;SDS011;5202;49.138;10.090;2023-08-31T09:05:52;4.45;;;1.98;;
10313;SDS011;5202;49.138;10.090;2023-08-31T09:08:25;5.20;;;2.20;;
10313;SDS011;5202;49.138;10.090;2023-08-31T09:10:56;3.58;;;1.90;;
10313;SDS011;5202;49.138;10.090;2023-08-31T09:13:27;5.80;;;2.03;;
10313;SDS011;5202;49.138;10.090;2023-08-31T09:15:57;5.43;;;2.28;;
10313;SDS011;5202;49.138;10.090;2023-08-31T09:18:26;4.60;;;1.98;;
10313;SDS011;5202;49.138;10.090;2023-08-31T09:20:56;5.30;;;2.10;;
10313;SDS011;5202;49.138;10.090;2023-08-31T09:23:25;4.88;;;2.20;;
10313;SDS011;5202;49.138;10.090;2023-08-31T09:25:54;2.80;;;1.73;;
10313;SDS011;5202;49.138;10.090;2023-08-31T09:28:24;7.28;;;2.05;;
10313;SDS011;5202;49.138;10.090;2023-08-31T09:31:04;3.53;;;2.10;;
10313;SDS011;5202;49.138;10.090;2023-08-31T09:33:34;6.82;;;2.08;;
10313;SDS011;5202;49.138;10.090;2023-08-31T09:36:05;2.65;;;1.83;;
10313;SDS011;5202;49.138;10.090;2023-08-31T09:38:40;6.45;;;1.90;;
10313;SDS011;5202;49.138;10.090;2023-08-31T09:41:10;3.80;;;1.80;;
10313;SDS011;5202;49.138;10.090;2023-08-31T09:43:40;8.63;;;1.80;;
10313;SDS011;5202;49.138;10.090;2023-08-31T09:46:09;4.57;;;1.77;;
10313;SDS011;5202;49.138;10.090;2023-08-31T09:48:40;4.05;;;1.85;;
10313;SDS011;5202;49.138;10.090;2023-08-31T09:51:10;3.50;;;2.10;;
10313;SDS011;5202;49.138;10.090;2023-08-31T09:53:40;2.60;;;2.08;;
10313;SDS011;5202;49.138;10.090;2023-08-31T09:56:10;3.63;;;2.05;;
10313;SDS011;5202;49.138;10.090;2023-08-31T09:58:47;4.13;;;1.83;;
10313;SDS011;5202;49.138;10.090;2023-08-31T10:01:16;2.97;;;2.05;;
10313;SDS011;5202;49.138;10.090;2023-08-31T10:04:04;5.47;;;2.53;;
10313;SDS011;5202;49.138;10.090;2023-08-31T10:06:39;5.15;;;1.90;;
10313;SDS011;5202;49.138;10.090;2023-08-31T10:09:09;5.35;;;2.25;;
10313;SDS011;5202;49.138;10.090;2023-08-31T10:11:38;3.75;;;1.65;;
10313;SDS011;5202;49.138;10.090;2023-08-31T10:14:10;5.43;;;2.17;;
10313;SDS011;5202;49.138;10.090;2023-08-31T10:16:39;5.10;;;2.00;;
10313;SDS011;5202;49.138;10.090;2023-08-31T10:19:08;3.22;;;1.80;;
10313;SDS011;5202;49.138;10.090;2023-08-31T10:21:37;4.90;;;2.08;;
10313;SDS011;5202;49.138;10.090;2023-08-31T10:24:06;3.83;;;1.60;;
10313;SDS011;5202;49.138;10.090;2023-08-31T10:26:34;5.25;;;2.05;;
10313;SDS011;5202;49.138;10.090;2023-08-31T10:29:03;4.47;;;2.10;;
10313;SDS011;5202;49.138;10.090;2023-08-31T10:31:34;5.68;;;1.92;;
10313;SDS011;5202;49.138;10.090;2023-08-31T10:34:04;4.38;;;1.80;;
10313;SDS011;5202;49.138;10.090;2023-08-31T10:36:37;3.67;;;1.80;;
10313;SDS011;5202;49.138;10.090;2023-08-31T10:39:11;3.45;;;1.80;;
10313;SDS011;5202;49.138;10.090;2023-08-31T10:41:44;2.10;;;1.50;;
10313;SDS011;5202;49.138;10.090;2023-08-31T10:44:21;3.90;;;1.90;;
10313;SDS011;5202;49.138;10.090;2023-08-31T10:46:52;3.53;;;1.80;;
10313;SDS011;5202;49.138;10.090;2023-08-31T10:49:21;2.58;;;1.85;;
10313;SDS011;5202;49.138;10.090;2023-08-31T10:51:53;3.85;;;1.63;;
10313;SDS011;5202;49.138;10.090;2023-08-31T10:54:24;3.08;;;1.70;;
10313;SDS011;5202;49.138;10.090;2023-08-31T10:56:54;3.75;;;1.75;;
10313;SDS011;5202;49.138;10.090;2023-08-31T10:59:49;4.60;;;2.30;;
10313;SDS011;5202;49.138;10.090;2023-08-31T11:02:28;3.75;;;1.90;;
10313;SDS011;5202;49.138;10.090;2023-08-31T11:05:01;3.70;;;1.90;;
10313;SDS011;5202;49.138;10.090;2023-08-31T11:07:34;3.85;;;1.80;;
10313;SDS011;5202;49.138;10.090;2023-08-31T11:10:07;6.90;;;2.40;;
10313;SDS011;5202;49.138;10.090;2023-08-31T11:12:41;3.05;;;2.13;;
10313;SDS011;5202;49.138;10.090;2023-08-31T11:15:11;3.53;;;1.90;;
10313;SDS011;5202;49.138;10.090;2023-08-31T11:17:43;2.50;;;1.58;;
10313;SDS011;5202;49.138;10.090;2023-08-31T11:20:13;4.47;;;2.22;;
10313;SDS011;5202;49.138;10.090;2023-08-31T11:22:44;2.60;;;1.70;;
10313;SDS011;5202;49.138;10.090;2023-08-31T11:25:16;4.70;;;1.80;;
10313;SDS011;5202;49.138;10.090;2023-08-31T11:27:54;4.03;;;2.00;;
10313;SDS011;5202;49.138;10.090;2023-08-31T11:30:24;4.32;;;2.03;;
10313;SDS011;5202;49.138;10.090;2023-08-31T11:32:55;2.47;;;1.73;;
10313;SDS011;5202;49.138;10.090;2023-08-31T11:35:23;4.57;;;1.70;;
10313;SDS011;5202;49.138;10.090;2023-08-31T11:38:01;6.07;;;2.00;;
10313;SDS011;5202;49.138;10.090;2023-08-31T11:40:30;4.78;;;1.70;;
10313;SDS011;5202;49.138;10.090;2023-08-31T11:42:59;3.45;;;1.83;;
10313;SDS011;5202;49.138;10.090;2023-08-31T11:45:27;4.47;;;1.80;;
10313;SDS011;5202;49.138;10.090;2023-08-31T11:47:58;7.40;;;1.98;;
10313;SDS011;5202;49.138;10.090;2023-08-31T11:50:27;2.85;;;1.92;;
10313;SDS011;5202;49.138;10.090;2023-08-31T11:52:56;6.20;;;2.00;;
10313;SDS011;5202;49.138;10.090;2023-08-31T11:55:24;2.85;;;1.60;;
10313;SDS011;5202;49.138;10.090;2023-08-31T11:57:54;3.47;;;1.60;;
10313;SDS011;5202;49.138;10.090;2023-08-31T12:00:23;3.85;;;2.05;;
10313;SDS011;5202;49.138;10.090;2023-08-31T12:02:59;2.17;;;1.80;;
10313;SDS011;5202;49.138;10.090;2023-08-31T12:05:44;5.88;;;2.03;;
10313;SDS011;5202;49.138;10.090;2023-08-31T12:08:13;2.05;;;1.75;;
10313;SDS011;5202;49.138;10.090;2023-08-31T12:10:42;4.53;;;1.80;;
10313;SDS011;5202;49.138;10.090;2023-08-31T12:13:11;3.30;;;1.90;;
10313;SDS011;5202;49.138;10.090;2023-08-31T12:15:41;3.13;;;1.80;;
10313;SDS011;5202;49.138;10.090;2023-08-31T12:18:11;6.35;;;1.60;;
10313;SDS011;5202;49.138;10.090;2023-08-31T12:20:42;2.38;;;1.70;;
10313;SDS011;5202;49.138;10.090;2023-08-31T12:23:12;3.80;;;2.03;;
10313;SDS011;5202;49.138;10.090;2023-08-31T12:25:45;3.60;;;1.60;;
10313;SDS011;5202;49.138;10.090;2023-08-31T12:28:15;3.25;;;1.70;;
10313;SDS011;5202;49.138;10.090;2023-08-31T12:30:46;5.18;;;1.88;;
10313;SDS011;5202;49.138;10.090;2023-08-31T12:33:17;4.95;;;1.65;;
10313;SDS011;5202;49.138;10.090;2023-08-31T12:35:48;3.15;;;1.70;;
10313;SDS011;5202;49.138;10.090;2023-08-31T12:38:17;6.53;;;1.83;;
10313;SDS011;5202;49.138;10.090;2023-08-31T12:40:45;3.75;;;2.00;;
10313;SDS011;5202;49.138;10.090;2023-08-31T12:43:13;2.15;;;1.65;;
10313;SDS011;5202;49.138;10.090;2023-08-31T12:45:43;3.22;;;1.80;;
10313;SDS011;5202;49.138;10.090;2023-08-31T12:48:11;6.00;;;1.83;;
10313;SDS011;5202;49.138;10.090;2023-08-31T12:50:41;4.50;;;1.80;;
10313;SDS011;5202;49.138;10.090;2023-08-31T12:53:10;2.83;;;1.80;;
10313;SDS011;5202;49.138;10.090;2023-08-31T12:55:39;5.85;;;1.90;;
10313;SDS011;5202;49.138;10.090;2023-08-31T12:58:07;5.10;;;2.13;;
10313;SDS011;5202;49.138;10.090;2023-08-31T13:00:36;3.90;;;2.00;;
10313;SDS011;5202;49.138;10.090;2023-08-31T13:03:04;4.68;;;2.05;;
10313;SDS011;5202;49.138;10.090;2023-08-31T13:05:34;4.00;;;1.83;;
10313;SDS011;5202;49.138;10.090;2023-08-31T13:08:04;2.55;;;2.03;;
10313;SDS011;5202;49.138;10.090;2023-08-31T13:10:34;9.02;;;2.08;;
10313;SDS011;5202;49.138;10.090;2023-08-31T13:13:02;3.47;;;1.92;;
10313;SDS011;5202;49.138;10.090;2023-08-31T13:15:31;5.82;;;1.90;;
10313;SDS011;5202;49.138;10.090;2023-08-31T13:18:00;2.83;;;1.73;;
10313;SDS011;5202;49.138;10.090;2023-08-31T13:20:29;4.95;;;1.90;;
10313;SDS011;5202;49.138;10.090;2023-08-31T13:23:01;2.95;;;1.80;;
10313;SDS011;5202;49.138;10.090;2023-08-31T13:25:31;4.07;;;1.98;;
10313;SDS011;5202;49.138;10.090;2023-08-31T13:27:59;6.40;;;1.98;;
10313;SDS011;5202;49.138;10.090;2023-08-31T13:30:30;4.15;;;1.90;;
10313;SDS011;5202;49.138;10.090;2023-08-31T13:32:59;5.10;;;2.00;;
10313;SDS011;5202;49.138;10.090;2023-08-31T13:35:27;4.03;;;1.63;;
10313;SDS011;5202;49.138;10.090;2023-08-31T13:37:56;7.57;;;2.25;;
10313;SDS011;5202;49.138;10.090;2023-08-31T13:40:24;4.70;;;2.33;;
10313;SDS011;5202;49.138;10.090;2023-08-31T13:42:55;6.07;;;2.28;;
10313;SDS011;5202;49.138;10.090;2023-08-31T13:45:29;3.90;;;1.90;;
10313;SDS011;5202;49.138;10.090;2023-08-31T13:47:58;4.43;;;1.98;;
10313;SDS011;5202;49.138;10.090;2023-08-31T13:50:27;3.78;;;2.08;;
10313;SDS011;5202;49.138;10.090;2023-08-31T13:52:56;6.80;;;1.88;;
10313;SDS011;5202;49.138;10.090;2023-08-31T13:55:24;6.63;;;2.30;;
10313;SDS011;5202;49.138;10.090;2023-08-31T13:57:55;4.53;;;1.73;;
10313;SDS011;5202;49.138;10.090;2023-08-31T14:00:23;3.80;;;1.50;;
10313;SDS011;5202;49.138;10.090;2023-08-31T14:02:52;4.25;;;1.95;;
10313;SDS011;5202;49.138;10.090;2023-08-31T14:05:27;6.55;;;1.88;;
10313;SDS011;5202;49.138;10.090;2023-08-31T14:07:56;4.07;;;1.60;;
10313;SDS011;5202;49.138;10.090;2023-08-31T14:10:24;6.20;;;2.05;;
10313;SDS011;5202;49.138;10.090;2023-08-31T14:12:54;3.72;;;1.90;;
10313;SDS011;5202;49.138;10.090;2023-08-31T14:15:23;3.35;;;1.63;;
10313;SDS011;5202;49.138;10.090;2023-08-31T14:17:51;6.45;;;2.00;;
10313;SDS011;5202;49.138;10.090;2023-08-31T14:20:21;2.70;;;1.83;;
10313;SDS011;5202;49.138;10.090;2023-08-31T14:22:49;4.43;;;2.00;;
10313;SDS011;5202;49.138;10.090;2023-08-31T14:25:18;3.45;;;1.67;;
10313;SDS011;5202;49.138;10.090;2023-08-31T14:27:50;7.03;;;2.17;;
10313;SDS011;5202;49.138;10.090;2023-08-31T14:30:20;5.10;;;2.53;;
10313;SDS011;5202;49.138;10.090;2023-08-31T14:32:48;3.72;;;1.90;;
10313;SDS011;5202;49.138;10.090;2023-08-31T14:35:17;6.28;;;2.13;;
10313;SDS011;5202;49.138;10.090;2023-08-31T14:37:45;5.90;;;2.00;;
10313;SDS011;5202;49.138;10.090;2023-08-31T14:40:14;5.53;;;1.95;;
10313;SDS011;5202;49.138;10.090;2023-08-31T14:42:43;3.85;;;2.15;;
10313;SDS011;5202;49.138;10.090;2023-08-31T14:45:11;3.72;;;1.75;;
10313;SDS011;5202;49.138;10.090;2023-08-31T14:47:41;6.45;;;1.83;;
10313;SDS011;5202;49.138;10.090;2023-08-31T14:50:09;3.55;;;1.80;;
10313;SDS011;5202;49.138;10.090;2023-08-31T14:52:38;4.63;;;2.28;;
10313;SDS011;5202;49.138;10.090;2023-08-31T14:55:06;5.75;;;2.00;;
10313;SDS011;5202;49.138;10.090;2023-08-31T14:57:35;8.63;;;2.10;;
10313;SDS011;5202;49.138;10.090;2023-08-31T15:00:09;5.05;;;2.20;;
10313;SDS011;5202;49.138;10.090;2023-08-31T15:02:39;3.47;;;1.85;;
10313;SDS011;5202;49.138;10.090;2023-08-31T15:05:09;4.43;;;1.98;;
10313;SDS011;5202;49.138;10.090;2023-08-31T15:07:40;4.75;;;2.50;;